createdAt,value
2023-02-11T00:01:10.832Z,27.38
2023-02-11T00:03:39.699Z,28.48
2023-02-11T00:06:09.365Z,30.50
2023-02-11T00:08:37.357Z,30.43
2023-02-11T00:11:05.590Z,28.60
2023-02-11T00:13:34.883Z,29.13
2023-02-11T00:16:08.060Z,28.35
2023-02-11T00:18:36.323Z,28.45
2023-02-11T00:21:08.419Z,27.98
2023-02-11T00:23:36.680Z,29.20
2023-02-11T00:26:04.909Z,28.13
2023-02-11T00:28:33.977Z,29.98
2023-02-11T00:31:02.533Z,27.88
2023-02-11T00:33:30.344Z,29.15
2023-02-11T00:35:57.982Z,27.80
2023-02-11T00:38:25.602Z,28.83
2023-02-11T00:40:53.279Z,28.92
2023-02-11T00:43:20.922Z,28.30
2023-02-11T00:45:50.353Z,29.33
2023-02-11T00:48:18.129Z,27.40
2023-02-11T00:50:45.759Z,27.48
2023-02-11T00:53:13.424Z,28.40
2023-02-11T00:55:41.066Z,29.10
2023-02-11T00:58:08.717Z,27.40
2023-02-11T01:00:36.427Z,28.25
2023-02-11T01:03:05.469Z,27.20
2023-02-11T01:05:33.176Z,29.48
2023-02-11T01:08:00.866Z,27.77
2023-02-11T01:10:28.817Z,27.80
2023-02-11T01:12:56.598Z,27.30
2023-02-11T01:15:24.436Z,26.23
2023-02-11T01:17:52.125Z,27.63
2023-02-11T01:20:23.573Z,26.38
2023-02-11T01:22:51.422Z,26.90
2023-02-11T01:25:19.363Z,27.52
2023-02-11T01:27:47.004Z,28.60
2023-02-11T01:30:15.747Z,28.55
2023-02-11T01:32:43.358Z,28.70
2023-02-11T01:35:11.047Z,27.13
2023-02-11T01:37:40.117Z,28.90
2023-02-11T01:40:14.430Z,29.67
2023-02-11T01:42:42.231Z,29.15
2023-02-11T01:45:53.421Z,28.33
2023-02-11T01:48:23.907Z,27.40
2023-02-11T01:53:41.141Z,26.98
2023-02-11T01:56:26.822Z,28.63
2023-02-11T01:58:57.955Z,27.95
2023-02-11T02:01:28.599Z,27.48
2023-02-11T02:04:00.852Z,27.63
2023-02-11T02:06:34.320Z,27.65
2023-02-11T02:09:08.682Z,27.25
2023-02-11T02:11:37.223Z,27.65
2023-02-11T02:14:05.009Z,27.67
2023-02-11T02:16:36.030Z,28.50
2023-02-11T02:19:25.327Z,27.38
2023-02-11T02:22:17.121Z,28.08
2023-02-11T02:25:20.225Z,27.80
2023-02-11T02:27:54.966Z,27.50
2023-02-11T02:31:07.728Z,29.00
2023-02-11T02:33:49.171Z,27.45
2023-02-11T02:36:24.275Z,27.65
2023-02-11T02:38:55.551Z,29.05
2023-02-11T02:41:28.141Z,27.73
2023-02-11T02:43:56.460Z,29.25
2023-02-11T02:46:26.557Z,28.60
2023-02-11T02:48:57.022Z,28.67
2023-02-11T02:54:36.911Z,29.02
2023-02-11T02:57:17.288Z,28.88
2023-02-11T02:59:58.995Z,28.92
2023-02-11T03:02:31.277Z,27.50
2023-02-11T03:05:07.381Z,29.42
2023-02-11T03:07:41.126Z,28.48
2023-02-11T03:10:13.849Z,30.77
2023-02-11T03:12:45.206Z,28.98
2023-02-11T03:15:14.835Z,28.73
2023-02-11T03:17:45.613Z,29.53
2023-02-11T03:20:18.160Z,29.20
2023-02-11T03:22:51.522Z,29.50
2023-02-11T03:25:20.380Z,28.75
2023-02-11T03:27:53.855Z,29.75
2023-02-11T03:30:27.694Z,29.77
2023-02-11T03:33:02.058Z,30.00
2023-02-11T03:35:36.493Z,28.55
2023-02-11T03:38:08.583Z,29.88
2023-02-11T03:40:39.177Z,30.27
2023-02-11T03:43:10.924Z,30.33
2023-02-11T03:45:40.216Z,29.45
2023-02-11T03:48:13.554Z,29.50
2023-02-11T03:50:44.461Z,29.02
2023-02-11T03:53:14.071Z,28.63
2023-02-11T03:55:44.063Z,28.87
2023-02-11T03:58:12.271Z,30.45
2023-02-11T04:00:42.621Z,30.15
2023-02-11T04:03:11.230Z,30.60
2023-02-11T04:05:40.153Z,28.83
2023-02-11T04:08:09.560Z,30.40
2023-02-11T04:10:37.247Z,31.48
2023-02-11T04:13:04.993Z,30.38
2023-02-11T04:15:32.638Z,30.63
2023-02-11T04:18:00.225Z,30.67
2023-02-11T04:20:27.869Z,30.15
2023-02-11T04:22:55.509Z,30.70
2023-02-11T04:25:25.896Z,31.30
2023-02-11T04:27:53.797Z,31.98
2023-02-11T04:30:21.675Z,32.35
2023-02-11T04:32:49.374Z,32.50
2023-02-11T04:35:17.173Z,32.97
2023-02-11T04:37:44.830Z,33.10
2023-02-11T04:40:12.729Z,33.05
2023-02-11T04:42:41.936Z,34.38
2023-02-11T04:45:10.396Z,32.80
2023-02-11T04:47:38.075Z,34.17
2023-02-11T04:50:06.377Z,33.58
2023-02-11T04:52:34.170Z,34.63
2023-02-11T04:55:01.847Z,34.60
2023-02-11T04:57:29.583Z,36.40
2023-02-11T04:59:58.683Z,35.88
2023-02-11T05:02:26.421Z,35.47
2023-02-11T05:04:54.050Z,33.63
2023-02-11T05:07:21.733Z,36.28
2023-02-11T05:09:49.428Z,36.78
2023-02-11T05:12:17.145Z,37.10
2023-02-11T05:14:44.814Z,34.78
2023-02-11T05:17:13.778Z,37.13
2023-02-11T05:19:42.784Z,37.83
2023-02-11T05:22:10.485Z,36.35
2023-02-11T05:24:38.103Z,36.83
2023-02-11T05:27:05.701Z,36.78
2023-02-11T05:29:33.385Z,38.95
2023-02-11T05:32:01.127Z,35.83
2023-02-11T05:34:30.188Z,37.20
2023-02-11T05:36:57.898Z,37.05
2023-02-11T05:39:25.562Z,37.80
2023-02-11T05:41:53.221Z,39.33
2023-02-11T05:44:21.061Z,37.70
2023-02-11T05:46:49.154Z,39.00
2023-02-11T05:49:17.978Z,40.15
2023-02-11T05:51:47.000Z,36.38
2023-02-11T05:54:15.187Z,37.13
2023-02-11T05:56:44.828Z,38.25
2023-02-11T05:59:15.167Z,39.10
2023-02-11T06:01:43.091Z,40.42
2023-02-11T06:04:10.816Z,38.97
2023-02-11T06:06:38.436Z,38.47
2023-02-11T06:09:07.462Z,41.13
2023-02-11T06:11:35.141Z,40.95
2023-02-11T06:14:03.017Z,40.70
2023-02-11T06:16:30.873Z,41.38
2023-02-11T06:18:59.223Z,41.47
2023-02-11T06:21:42.406Z,42.00
2023-02-11T06:24:13.249Z,42.88
2023-02-11T06:26:41.082Z,42.35
2023-02-11T06:29:08.818Z,41.58
2023-02-11T06:31:38.847Z,42.17
2023-02-11T06:34:06.730Z,42.78
2023-02-11T06:36:34.462Z,40.78
2023-02-11T06:39:02.168Z,42.97
2023-02-11T06:41:31.259Z,44.05
2023-02-11T06:43:58.940Z,41.88
2023-02-11T06:46:26.711Z,44.22
2023-02-11T06:48:54.465Z,42.45
2023-02-11T06:51:22.220Z,42.33
2023-02-11T06:53:50.300Z,46.20
2023-02-11T06:56:21.311Z,43.20
2023-02-11T06:58:54.594Z,42.40
2023-02-11T07:01:22.945Z,44.75
2023-02-11T07:03:51.226Z,44.08
2023-02-11T07:06:21.999Z,43.78
2023-02-11T07:08:50.379Z,43.92
2023-02-11T07:11:20.488Z,44.72
2023-02-11T07:13:49.998Z,44.47
2023-02-11T07:16:19.962Z,43.83
2023-02-11T07:18:49.357Z,43.80
2023-02-11T07:21:19.203Z,44.75
2023-02-11T07:23:47.134Z,43.10
2023-02-11T07:26:16.837Z,43.28
2023-02-11T07:28:45.559Z,44.92
2023-02-11T07:31:17.059Z,46.65
2023-02-11T07:33:45.831Z,44.50
2023-02-11T07:36:15.443Z,43.65
2023-02-11T07:38:44.124Z,45.53
2023-02-11T07:41:13.351Z,43.90
2023-02-11T07:43:41.921Z,43.70
2023-02-11T07:46:11.792Z,43.90
2023-02-11T07:48:41.214Z,43.65
2023-02-11T07:51:10.639Z,42.85
2023-02-11T07:53:38.455Z,43.95
2023-02-11T07:56:07.306Z,39.92
2023-02-11T07:58:35.440Z,45.00
2023-02-11T08:01:04.203Z,45.33
2023-02-11T08:03:32.640Z,44.63
2023-02-11T08:06:04.732Z,41.50
2023-02-11T08:08:32.369Z,44.15
2023-02-11T08:11:00.244Z,43.95
2023-02-11T08:13:27.956Z,45.45
2023-02-11T08:15:58.454Z,46.63
2023-02-11T08:20:53.660Z,39.95
2023-02-11T08:23:22.679Z,43.97
2023-02-11T08:25:50.326Z,44.47
2023-02-11T08:28:18.026Z,45.45
2023-02-11T08:30:45.738Z,43.28
2023-02-11T08:33:13.402Z,42.35
2023-02-11T08:35:41.388Z,43.92
2023-02-11T08:38:09.464Z,42.13
2023-02-11T08:40:38.485Z,43.63
2023-02-11T08:43:08.109Z,41.78
2023-02-11T08:45:35.957Z,43.08
2023-02-11T08:48:03.600Z,41.85
2023-02-11T08:50:32.217Z,43.97
2023-02-11T08:52:59.910Z,43.25
2023-02-11T08:55:27.571Z,43.85
2023-02-11T08:57:56.734Z,42.33
2023-02-11T09:00:24.513Z,40.45
2023-02-11T09:02:52.127Z,43.85
2023-02-11T09:05:19.807Z,42.50
2023-02-11T09:07:47.474Z,41.67
2023-02-11T09:10:15.419Z,41.80
2023-02-11T09:12:43.111Z,40.63
2023-02-11T09:15:12.295Z,41.28
2023-02-11T09:17:39.955Z,40.17
2023-02-11T09:20:10.847Z,39.92
2023-02-11T09:22:38.643Z,40.85
2023-02-11T09:25:06.912Z,39.50
2023-02-11T09:27:34.561Z,39.67
2023-02-11T09:30:02.204Z,41.53
2023-02-11T09:32:31.313Z,39.95
2023-02-11T09:34:58.950Z,39.97
2023-02-11T09:37:26.763Z,39.92
2023-02-11T09:39:54.531Z,40.80
2023-02-11T09:42:40.470Z,39.88
2023-02-11T09:45:17.248Z,38.00
2023-02-11T09:47:51.707Z,40.45
2023-02-11T09:50:24.523Z,39.35
2023-02-11T09:52:57.255Z,41.50
2023-02-11T09:55:29.194Z,39.75
2023-02-11T09:57:57.903Z,39.97
2023-02-11T10:00:29.620Z,41.55
2023-02-11T10:03:17.968Z,39.25
2023-02-11T10:06:07.252Z,40.20
2023-02-11T10:08:46.696Z,37.00
2023-02-11T10:11:31.345Z,38.92
2023-02-11T10:14:08.091Z,37.30
2023-02-11T10:16:49.460Z,37.95
2023-02-11T10:19:32.875Z,39.13
2023-02-11T10:22:10.797Z,38.50
2023-02-11T10:24:39.707Z,36.30
2023-02-11T10:27:17.873Z,37.72
2023-02-11T10:29:50.616Z,36.28
2023-02-11T10:32:30.521Z,37.22
2023-02-11T10:35:02.947Z,37.10
2023-02-11T10:37:31.082Z,36.20
2023-02-11T10:39:58.712Z,36.22
2023-02-11T10:42:27.390Z,35.88
2023-02-11T10:45:01.513Z,36.67
2023-02-11T10:47:34.165Z,35.45
2023-02-11T10:50:20.223Z,35.80
2023-02-11T10:52:47.909Z,37.70
2023-02-11T10:55:17.972Z,37.85
2023-02-11T10:57:54.001Z,37.20
2023-02-11T11:00:34.114Z,36.50
2023-02-11T11:03:02.876Z,36.05
2023-02-11T11:05:35.202Z,34.78
2023-02-11T11:08:05.555Z,36.53
2023-02-11T11:10:43.096Z,36.40
2023-02-11T11:13:29.312Z,33.70
2023-02-11T11:16:25.182Z,36.08
2023-02-11T11:18:54.568Z,36.28
2023-02-11T11:21:31.341Z,35.13
2023-02-11T11:24:00.686Z,35.72
2023-02-11T11:26:39.683Z,35.30
2023-02-11T11:29:11.816Z,33.00
2023-02-11T11:31:48.921Z,32.92
2023-02-11T11:34:24.187Z,32.95
2023-02-11T11:36:53.345Z,31.80
2023-02-11T11:39:24.627Z,34.25
2023-02-11T11:41:57.662Z,32.50
2023-02-11T11:44:33.703Z,31.20
2023-02-11T11:47:23.361Z,31.17
2023-02-11T11:50:06.289Z,29.50
2023-02-11T11:52:45.409Z,31.45
2023-02-11T11:55:19.010Z,31.27
2023-02-11T11:57:46.717Z,30.48
2023-02-11T12:00:20.948Z,31.50
2023-02-11T12:03:16.187Z,29.70
2023-02-11T12:05:53.167Z,31.10
2023-02-11T12:08:32.470Z,31.60
2023-02-11T12:11:10.635Z,30.40
2023-02-11T12:13:54.385Z,29.55
2023-02-11T12:16:34.157Z,30.13
2023-02-11T12:19:27.764Z,28.85
2023-02-11T12:22:07.291Z,30.40
2023-02-11T12:24:48.694Z,29.38
2023-02-11T12:27:24.168Z,27.08
2023-02-11T12:30:04.433Z,27.60
2023-02-11T12:32:40.209Z,27.75
2023-02-11T12:35:31.372Z,43.78
2023-02-11T12:38:18.645Z,28.92
2023-02-11T12:40:55.295Z,27.20
2023-02-11T12:43:24.817Z,26.35
2023-02-11T12:46:07.044Z,26.50
2023-02-11T12:48:55.888Z,27.95
2023-02-11T12:51:38.406Z,26.05
2023-02-11T12:54:21.655Z,26.80
2023-02-11T12:56:54.604Z,26.80
2023-02-11T12:59:35.828Z,27.77
2023-02-11T13:02:12.553Z,27.02
2023-02-11T13:04:45.206Z,27.45
2023-02-11T13:07:16.499Z,27.67
2023-02-11T13:09:50.935Z,30.55
2023-02-11T13:12:37.832Z,30.05
2023-02-11T13:15:08.521Z,28.55
2023-02-11T13:17:41.962Z,26.52
2023-02-11T13:20:21.582Z,26.55
2023-02-11T13:22:57.645Z,27.02
2023-02-11T13:25:33.103Z,25.30
2023-02-11T13:28:19.153Z,24.42
2023-02-11T13:30:52.161Z,24.55
2023-02-11T13:33:32.740Z,24.00
2023-02-11T13:36:20.526Z,44.97
2023-02-11T13:38:58.260Z,22.63
2023-02-11T13:41:30.581Z,22.13
2023-02-11T13:44:02.843Z,21.83
2023-02-11T13:46:49.706Z,21.95
2023-02-11T13:49:23.573Z,22.65
2023-02-11T13:51:52.313Z,22.58
2023-02-11T13:54:29.285Z,22.20
2023-02-11T13:57:32.609Z,23.40
2023-02-11T14:00:03.126Z,21.92
2023-02-11T14:05:44.380Z,21.80
2023-02-11T14:08:39.523Z,22.40
2023-02-11T14:11:12.327Z,22.10
2023-02-11T14:14:06.069Z,21.75
2023-02-11T14:16:38.313Z,21.48
2023-02-11T14:19:07.084Z,21.67
2023-02-11T14:21:38.986Z,21.50
2023-02-11T14:24:43.916Z,21.75
2023-02-11T14:27:21.389Z,22.35
2023-02-11T14:30:01.699Z,21.35
2023-02-11T14:32:41.443Z,20.92
2023-02-11T14:35:15.118Z,21.50
2023-02-11T14:37:50.964Z,20.23
2023-02-11T14:40:27.820Z,21.05
2023-02-11T14:42:57.322Z,19.02
2023-02-11T14:45:28.223Z,18.30
2023-02-11T14:48:04.361Z,17.17
2023-02-11T14:50:38.279Z,16.73
2023-02-11T14:53:06.590Z,17.70
2023-02-11T14:55:36.994Z,18.38
2023-02-11T14:58:09.428Z,17.13
2023-02-11T15:00:37.096Z,17.40
2023-02-11T15:03:06.252Z,17.70
2023-02-11T15:05:33.934Z,16.85
2023-02-11T15:08:04.148Z,15.73
2023-02-11T15:10:34.509Z,15.35
2023-02-11T15:13:03.574Z,16.20
2023-02-11T15:15:32.605Z,15.00
2023-02-11T15:18:04.347Z,14.88
2023-02-11T15:20:35.864Z,14.38
2023-02-11T15:23:07.138Z,14.35
2023-02-11T15:25:35.969Z,14.30
2023-02-11T15:28:20.904Z,14.43
2023-02-11T15:30:48.671Z,13.27
2023-02-11T15:33:25.259Z,13.50
2023-02-11T15:35:54.387Z,14.10
2023-02-11T15:38:22.039Z,13.93
2023-02-11T15:40:55.828Z,13.63
2023-02-11T15:43:23.768Z,13.52
2023-02-11T15:46:02.570Z,13.80
2023-02-11T15:48:38.265Z,13.05
2023-02-11T15:51:19.480Z,13.88
2023-02-11T15:53:52.690Z,12.35
2023-02-11T15:56:25.388Z,11.80
2023-02-11T15:58:55.442Z,12.07
2023-02-11T16:01:33.523Z,13.02
2023-02-11T16:04:02.205Z,11.73
2023-02-11T16:06:39.853Z,11.88
2023-02-11T16:09:24.547Z,12.23
2023-02-11T16:11:58.021Z,13.98
2023-02-11T16:14:31.019Z,16.17
2023-02-11T16:17:01.755Z,13.68
2023-02-11T16:19:30.683Z,12.25
2023-02-11T16:22:02.224Z,11.55
2023-02-11T16:24:33.062Z,11.55
2023-02-11T16:27:02.327Z,11.70
2023-02-11T16:29:32.297Z,11.52
2023-02-11T16:32:09.109Z,11.50
2023-02-11T16:34:37.614Z,11.30
2023-02-11T16:37:07.078Z,11.85
2023-02-11T16:39:34.898Z,10.77
2023-02-11T16:42:04.718Z,11.18
2023-02-11T16:44:34.390Z,11.15
2023-02-11T16:47:04.145Z,10.85
2023-02-11T16:49:35.560Z,11.93
2023-02-11T16:52:07.659Z,10.70
2023-02-11T16:54:36.646Z,11.13
2023-02-11T16:57:10.179Z,10.65
2023-02-11T16:59:37.831Z,10.70
2023-02-11T17:02:05.656Z,10.80
2023-02-11T17:04:34.331Z,10.85
2023-02-11T17:07:02.075Z,10.60
2023-02-11T17:09:31.112Z,10.85
2023-02-11T17:12:00.348Z,10.60
2023-02-11T17:14:28.156Z,10.80
2023-02-11T17:16:55.832Z,9.05
2023-02-11T17:19:23.566Z,9.52
2023-02-11T17:21:52.903Z,8.75
2023-02-11T17:24:21.538Z,8.73
2023-02-11T17:26:49.845Z,9.05
2023-02-11T17:29:21.955Z,9.70
2023-02-11T17:31:51.438Z,8.35
2023-02-11T17:34:20.141Z,8.95
2023-02-11T17:36:47.825Z,9.48
2023-02-11T17:39:15.615Z,8.85
2023-02-11T17:41:43.330Z,10.07
2023-02-11T17:44:14.047Z,10.45
2023-02-11T17:46:43.407Z,10.05
2023-02-11T17:49:11.479Z,9.25
2023-02-11T17:51:40.625Z,8.80
2023-02-11T17:54:11.659Z,9.05
2023-02-11T17:56:39.898Z,8.98
2023-02-11T17:59:09.094Z,9.18
2023-02-11T18:01:38.190Z,7.78
2023-02-11T18:04:07.869Z,9.25
2023-02-11T18:06:35.606Z,8.10
2023-02-11T18:09:04.299Z,8.57
2023-02-11T18:11:33.950Z,9.00
2023-02-11T18:14:02.098Z,9.30
2023-02-11T18:16:30.512Z,8.80
2023-02-11T18:18:59.290Z,8.82
2023-02-11T18:21:28.314Z,7.57
2023-02-11T18:23:56.922Z,8.32
2023-02-11T18:26:27.957Z,8.85
2023-02-11T18:28:57.468Z,8.60
2023-02-11T18:31:26.376Z,8.15
2023-02-11T18:33:54.270Z,8.85
2023-02-11T18:36:22.714Z,8.75
2023-02-11T18:38:53.564Z,9.13
2023-02-11T18:41:22.100Z,10.43
2023-02-11T18:43:50.320Z,9.23
2023-02-11T18:46:18.123Z,9.10
2023-02-11T18:48:46.210Z,9.13
2023-02-11T18:51:16.078Z,8.77
2023-02-11T18:53:43.787Z,8.40
2023-02-11T18:56:15.039Z,8.40
2023-02-11T18:58:42.792Z,8.15
2023-02-11T19:01:12.849Z,8.63
2023-02-11T19:03:40.597Z,8.15
2023-02-11T19:06:09.200Z,8.25
2023-02-11T19:08:36.827Z,7.95
2023-02-11T19:11:05.633Z,7.43
2023-02-11T19:13:34.650Z,8.07
2023-02-11T19:16:08.685Z,9.50
2023-02-11T19:18:38.587Z,8.32
2023-02-11T19:21:10.306Z,8.27
2023-02-11T19:23:38.321Z,8.23
2023-02-11T19:26:06.615Z,7.82
2023-02-11T19:28:37.023Z,7.28
2023-02-11T19:31:09.298Z,7.85
2023-02-11T19:33:37.364Z,7.60
2023-02-11T19:36:07.559Z,8.02
2023-02-11T19:38:36.231Z,8.32
2023-02-11T19:41:04.987Z,8.10
2023-02-11T19:43:32.672Z,8.27
2023-02-11T19:46:02.292Z,8.15
2023-02-11T19:48:30.389Z,8.27
2023-02-11T19:50:58.140Z,7.90
2023-02-11T19:53:25.814Z,7.97
2023-02-11T19:55:53.690Z,7.93
2023-02-11T19:58:21.613Z,8.25
2023-02-11T20:00:49.296Z,8.10
2023-02-11T20:03:18.531Z,7.82
2023-02-11T20:05:47.700Z,9.30
2023-02-11T20:08:16.936Z,8.70
2023-02-11T20:10:44.612Z,9.63
2023-02-11T20:13:12.277Z,9.45
2023-02-11T20:15:40.035Z,8.90
2023-02-11T20:18:07.744Z,8.70
2023-02-11T20:20:38.668Z,8.65
2023-02-11T20:23:06.351Z,10.30
2023-02-11T20:25:34.010Z,8.50
2023-02-11T20:28:01.694Z,9.23
2023-02-11T20:30:29.328Z,9.13
2023-02-11T20:32:58.382Z,9.20
2023-02-11T20:35:25.979Z,9.65
2023-02-11T20:37:55.052Z,9.55
2023-02-11T20:40:22.745Z,9.48
2023-02-11T20:42:50.541Z,9.18
2023-02-11T20:45:18.376Z,8.95
2023-02-11T20:47:46.015Z,9.10
2023-02-11T20:50:13.805Z,9.00
2023-02-11T20:52:41.444Z,8.90
2023-02-11T20:55:10.596Z,9.30
2023-02-11T20:57:38.250Z,9.18
2023-02-11T21:00:06.939Z,9.30
2023-02-11T21:02:34.606Z,8.80
2023-02-11T21:05:02.283Z,9.50
2023-02-11T21:07:31.299Z,8.40
2023-02-11T21:09:58.933Z,8.80
2023-02-11T21:12:27.990Z,8.40
2023-02-11T21:14:57.103Z,8.90
2023-02-11T21:17:26.273Z,9.57
2023-02-11T21:19:53.953Z,9.18
2023-02-11T21:22:21.585Z,8.45
2023-02-11T21:24:49.339Z,9.00
2023-02-11T21:27:17.276Z,9.30
2023-02-11T21:29:54.111Z,8.30
2023-02-11T21:32:22.334Z,8.45
2023-02-11T21:34:50.069Z,8.70
2023-02-11T21:37:17.729Z,8.82
2023-02-11T21:39:45.383Z,7.70
2023-02-11T21:42:13.082Z,8.02
2023-02-11T21:44:40.715Z,8.75
2023-02-11T21:47:09.689Z,8.40
2023-02-11T21:49:37.430Z,8.63
2023-02-11T21:52:05.702Z,8.32
2023-02-11T21:54:33.396Z,8.20
2023-02-11T21:57:02.972Z,8.25
2023-02-11T21:59:31.684Z,7.70
2023-02-11T22:01:59.794Z,8.15
2023-02-11T22:04:29.020Z,7.85
2023-02-11T22:06:56.756Z,7.60
2023-02-11T22:09:24.403Z,8.02
2023-02-11T22:11:52.966Z,7.90
2023-02-11T22:14:20.637Z,7.78
2023-02-11T22:16:48.925Z,7.43
2023-02-11T22:19:17.195Z,7.90
2023-02-11T22:21:46.215Z,7.35
2023-02-11T22:24:13.879Z,7.15
2023-02-11T22:26:41.565Z,6.60
2023-02-11T22:29:09.278Z,7.20
2023-02-11T22:31:37.511Z,7.85
2023-02-11T22:34:06.066Z,6.45
2023-02-11T22:36:35.730Z,6.57
2023-02-11T22:39:07.066Z,6.87
2023-02-11T22:41:35.154Z,6.30
2023-02-11T22:44:02.890Z,7.60
2023-02-11T22:46:30.864Z,7.53
2023-02-11T22:48:58.642Z,7.13
2023-02-11T22:51:29.359Z,7.13
2023-02-11T22:53:58.835Z,7.07
2023-02-11T22:56:28.959Z,7.97
2023-02-11T22:58:58.986Z,6.70
2023-02-11T23:01:26.993Z,7.40
2023-02-11T23:03:54.722Z,7.68
2023-02-11T23:06:22.459Z,7.20
2023-02-11T23:08:50.145Z,6.65
2023-02-11T23:11:21.118Z,6.82
2023-02-11T23:13:51.941Z,7.63
2023-02-11T23:16:22.710Z,7.47
2023-02-11T23:18:51.142Z,6.68
2023-02-11T23:21:22.123Z,7.40
2023-02-11T23:23:54.433Z,6.57
2023-02-11T23:26:22.107Z,7.00
2023-02-11T23:28:51.495Z,7.00
2023-02-11T23:31:21.586Z,7.32
2023-02-11T23:33:49.975Z,7.60
2023-02-11T23:36:19.221Z,7.78
2023-02-11T23:38:47.056Z,7.43
2023-02-11T23:41:15.512Z,7.28
2023-02-11T23:43:43.420Z,9.52
2023-02-11T23:46:12.775Z,43.30
2023-02-11T23:48:40.941Z,16.35
2023-02-11T23:51:10.084Z,7.43
2023-02-11T23:53:38.176Z,7.85
2023-02-11T23:56:08.970Z,7.07
2023-02-11T23:58:37.183Z,7.07
